Lewiston, Michigan
Current Conditions -  °F | °C
As of 10:53 AM on Wednesday 22 Oct 2014 (Local Time) from KGLR Reporting Station
Overcast Overcast  
Wind Chill: 32°   Ceiling: 1500
Heat Index: 37°   Visibility: 10mi
Dew Point: 30°   Wind: 6mph
Humidity: 76%   Direction: 120°ESE
Pressure: 30.39"   Gusts: NA
Location:  44.88°N, 84.31°W
Report Text: KGLR 221453Z AUTO 12005KT 10SM OVC015 03/M01 A3039 RMK AO2 SLP307 T00281011 53009
Loading
Personal Weather Stations






























Interactive Weather Map
Tropical Storm Tracking
New forecast layout! Learn more

10-Day Weather Forecast

Advertisements
Track Severe Weather on mobile